createdAt,value
2019-05-16T00:02:01.482Z,80.40
2019-05-16T00:04:37.991Z,80.70
2019-05-16T00:07:28.184Z,80.70
2019-05-16T00:10:15.740Z,81.70
2019-05-16T00:13:03.622Z,82.40
2019-05-16T00:15:51.227Z,82.10
2019-05-16T00:18:39.280Z,82.70
2019-05-16T00:21:28.261Z,82.90
2019-05-16T00:24:18.520Z,82.90
2019-05-16T00:27:08.160Z,83.20
2019-05-16T00:29:57.973Z,83.60
2019-05-16T00:32:45.116Z,83.60
2019-05-16T00:35:33.096Z,83.50
2019-05-16T00:38:20.897Z,83.30
2019-05-16T00:41:08.689Z,83.90
2019-05-16T00:43:57.734Z,84.70
2019-05-16T00:46:45.568Z,84.70
2019-05-16T00:49:33.381Z,85.10
2019-05-16T00:56:10.722Z,85.20
2019-05-16T00:58:59.486Z,85.60
2019-05-16T01:01:50.004Z,85.70
2019-05-16T01:04:38.165Z,85.90
2019-05-16T01:07:27.728Z,85.90
2019-05-16T01:10:15.462Z,86.00
2019-05-16T01:13:03.241Z,86.00
2019-05-16T01:15:50.954Z,86.50
2019-05-16T01:18:38.797Z,86.70
2019-05-16T01:21:28.739Z,86.70
2019-05-16T01:24:18.710Z,87.00
2019-05-16T01:27:08.224Z,86.80
2019-05-16T01:29:55.741Z,86.60
2019-05-16T01:32:43.645Z,85.80
2019-05-16T01:35:31.968Z,85.70
2019-05-16T01:38:20.157Z,83.90
2019-05-16T01:41:08.780Z,84.40
2019-05-16T01:43:58.529Z,83.80
2019-05-16T01:46:48.069Z,84.00
2019-05-16T01:49:37.990Z,83.60
2019-05-16T01:52:25.525Z,83.90
2019-05-16T01:55:13.233Z,84.20
2019-05-16T01:58:01.164Z,84.20
2019-05-16T02:01:02.584Z,83.50
2019-05-16T02:03:39.030Z,83.10
2019-05-16T02:06:28.782Z,82.50
2019-05-16T02:09:18.910Z,82.20
2019-05-16T02:12:08.123Z,83.20
2019-05-16T02:14:55.825Z,82.90
2019-05-16T02:17:43.452Z,82.70
2019-05-16T02:20:31.576Z,82.70
2019-05-16T02:23:19.213Z,82.40
2019-05-16T02:26:07.959Z,82.30
2019-05-16T02:28:56.247Z,82.90
2019-05-16T02:31:44.225Z,81.70
2019-05-16T02:34:32.094Z,82.20
2019-05-16T02:37:25.939Z,82.20
2019-05-16T02:40:11.979Z,83.10
2019-05-16T02:43:01.572Z,82.90
2019-05-16T02:45:51.931Z,83.10
2019-05-16T02:48:40.976Z,82.80
2019-05-16T02:51:31.551Z,82.50
2019-05-16T02:54:21.494Z,82.30
2019-05-16T02:57:11.138Z,82.50
2019-05-16T02:59:57.570Z,82.70
2019-05-16T03:02:45.797Z,82.70
2019-05-16T03:05:34.277Z,82.50
2019-05-16T03:08:22.983Z,82.70
2019-05-16T03:11:11.885Z,83.20
2019-05-16T03:14:00.692Z,83.60
2019-05-16T03:16:50.733Z,83.40
2019-05-16T03:19:41.498Z,83.80
2019-05-16T03:22:31.548Z,83.80
2019-05-16T03:25:21.998Z,83.40
2019-05-16T03:28:11.177Z,83.20
2019-05-16T03:31:04.310Z,83.10
2019-05-16T03:33:57.919Z,83.70
2019-05-16T03:36:43.774Z,83.40
2019-05-16T03:39:31.303Z,83.10
2019-05-16T03:42:20.475Z,83.70
2019-05-16T03:45:10.808Z,84.00
2019-05-16T03:48:02.251Z,83.00
2019-05-16T03:50:50.772Z,82.70
2019-05-16T03:53:40.273Z,83.40
2019-05-16T03:56:30.562Z,83.50
2019-05-16T03:59:16.960Z,84.30
2019-05-16T04:02:04.749Z,84.50
2019-05-16T04:04:52.510Z,85.70
2019-05-16T04:07:41.686Z,85.30
2019-05-16T04:10:30.905Z,85.10
2019-05-16T04:13:21.381Z,85.00
2019-05-16T04:16:11.795Z,84.40
2019-05-16T04:19:01.640Z,84.90
2019-05-16T04:21:51.104Z,84.90
2019-05-16T04:24:38.351Z,84.90
2019-05-16T04:27:26.413Z,84.20
2019-05-16T04:30:14.356Z,83.90
2019-05-16T04:33:02.130Z,83.60
2019-05-16T04:35:52.443Z,83.60
2019-05-16T04:38:42.830Z,83.20
2019-05-16T04:41:31.306Z,82.50
2019-05-16T04:44:21.070Z,82.00
2019-05-16T04:47:11.046Z,81.40
2019-05-16T04:50:01.596Z,81.90
2019-05-16T04:52:47.919Z,81.30
2019-05-16T04:55:35.511Z,81.20
2019-05-16T04:58:24.045Z,79.90
2019-05-16T05:01:12.081Z,80.50
2019-05-16T05:04:10.378Z,80.30
2019-05-16T05:06:51.264Z,79.00
2019-05-16T05:09:40.894Z,78.90
2019-05-16T05:12:31.520Z,79.00
2019-05-16T05:15:21.343Z,77.80
2019-05-16T05:18:10.155Z,78.10
2019-05-16T05:21:00.816Z,77.20
2019-05-16T05:23:47.652Z,77.90
2019-05-16T05:26:35.557Z,77.80
2019-05-16T05:29:23.425Z,77.60
2019-05-16T05:32:14.415Z,78.40
2019-05-16T05:35:00.627Z,78.00
2019-05-16T05:37:50.583Z,78.30
2019-05-16T05:40:40.381Z,77.20
2019-05-16T05:43:30.307Z,73.90
2019-05-16T05:46:20.275Z,74.10
2019-05-16T05:49:10.260Z,74.40
2019-05-16T05:51:57.134Z,73.50
2019-05-16T05:54:44.996Z,73.80
2019-05-16T05:57:32.749Z,74.10
2019-05-16T06:00:21.223Z,73.60
2019-05-16T06:03:10.707Z,72.50
2019-05-16T06:06:00.873Z,71.60
2019-05-16T06:08:50.150Z,70.90
2019-05-16T06:11:37.996Z,71.20
2019-05-16T06:14:25.836Z,67.40
2019-05-16T06:17:13.975Z,68.10
2019-05-16T06:20:02.007Z,67.50
2019-05-16T06:22:50.959Z,68.00
2019-05-16T06:25:40.583Z,66.40
2019-05-16T06:28:30.752Z,65.70
2019-05-16T06:31:21.771Z,66.30
2019-05-16T06:34:14.501Z,65.60
2019-05-16T06:37:00.334Z,65.00
2019-05-16T06:39:50.066Z,65.90
2019-05-16T06:42:40.052Z,66.70
2019-05-16T06:45:27.022Z,66.70
2019-05-16T06:48:14.870Z,65.10
2019-05-16T06:51:03.273Z,65.70
2019-05-16T06:53:51.424Z,65.50
2019-05-16T06:56:40.072Z,65.20
2019-05-16T06:59:29.796Z,65.00
2019-05-16T07:02:27.818Z,61.60
2019-05-16T07:05:09.951Z,62.40
2019-05-16T07:07:57.240Z,60.80
2019-05-16T07:10:44.931Z,61.20
2019-05-16T07:13:32.869Z,61.50
2019-05-16T07:16:20.925Z,61.40
2019-05-16T07:19:10.439Z,60.80
2019-05-16T07:21:59.813Z,58.80
2019-05-16T07:24:47.811Z,55.90
2019-05-16T07:27:39.888Z,58.30
2019-05-16T07:30:27.166Z,58.60
2019-05-16T07:33:20.726Z,56.90
2019-05-16T07:36:09.959Z,60.50
2019-05-16T07:38:59.774Z,54.70
2019-05-16T07:41:47.196Z,57.10
2019-05-16T07:44:35.039Z,55.20
2019-05-16T07:47:23.005Z,54.90
2019-05-16T07:50:11.318Z,54.50
2019-05-16T07:52:59.976Z,52.90
2019-05-16T07:55:50.578Z,55.10
2019-05-16T07:58:37.548Z,52.70
2019-05-16T08:01:25.459Z,54.80
2019-05-16T08:04:13.401Z,52.10
2019-05-16T08:07:01.125Z,53.60
2019-05-16T08:09:50.504Z,52.30
2019-05-16T08:12:40.689Z,51.50
2019-05-16T08:15:30.407Z,51.50
2019-05-16T08:18:20.955Z,51.40
2019-05-16T08:21:07.790Z,52.00
2019-05-16T08:23:55.752Z,52.10
2019-05-16T08:26:43.733Z,51.80
2019-05-16T08:29:31.927Z,51.00
2019-05-16T08:32:23.090Z,51.00
2019-05-16T08:35:11.185Z,51.00
2019-05-16T08:38:01.116Z,49.70
2019-05-16T08:41:06.267Z,48.50
2019-05-16T08:43:41.144Z,47.30
2019-05-16T08:46:27.802Z,47.20
2019-05-16T08:49:15.637Z,47.60
2019-05-16T08:52:03.580Z,47.30
2019-05-16T08:54:51.420Z,48.10
2019-05-16T08:57:40.881Z,47.70
2019-05-16T09:00:33.442Z,47.90
2019-05-16T09:03:22.319Z,48.40
2019-05-16T09:06:11.537Z,50.60
2019-05-16T09:09:09.067Z,47.00
2019-05-16T09:11:48.759Z,44.50
2019-05-16T09:14:39.009Z,43.60
2019-05-16T09:17:27.640Z,43.90
2019-05-16T09:20:17.379Z,45.70
2019-05-16T09:23:07.438Z,45.40
2019-05-16T09:25:57.935Z,44.10
2019-05-16T09:28:47.809Z,45.90
2019-05-16T09:31:34.511Z,44.40
2019-05-16T09:34:22.676Z,41.20
2019-05-16T09:37:10.684Z,40.90
2019-05-16T09:39:58.131Z,42.60
2019-05-16T09:42:47.322Z,42.60
2019-05-16T09:45:37.794Z,41.80
2019-05-16T09:48:28.030Z,43.40
2019-05-16T09:51:17.270Z,43.60
2019-05-16T09:54:07.193Z,40.10
2019-05-16T09:56:57.218Z,42.50
2019-05-16T09:59:46.485Z,40.70
2019-05-16T10:02:36.736Z,41.90
2019-05-16T10:05:26.629Z,42.60
2019-05-16T10:11:01.093Z,43.40
2019-05-16T10:13:48.856Z,44.80
2019-05-16T10:16:36.849Z,45.90
2019-05-16T10:19:27.374Z,45.10
2019-05-16T10:22:17.056Z,45.00
2019-05-16T10:25:06.766Z,44.10
2019-05-16T10:27:54.449Z,44.30
2019-05-16T10:30:42.434Z,43.50
2019-05-16T10:33:30.228Z,42.90
2019-05-16T10:36:21.744Z,44.70
2019-05-16T10:39:08.215Z,43.60
2019-05-16T10:41:57.424Z,42.90
2019-05-16T10:44:47.977Z,43.50
2019-05-16T10:47:36.930Z,43.70
2019-05-16T10:50:24.782Z,42.50
2019-05-16T10:53:39.871Z,43.40
2019-05-16T10:56:03.620Z,42.40
2019-05-16T10:59:21.558Z,43.20
2019-05-16T11:01:41.586Z,43.60
2019-05-16T11:04:48.422Z,44.10
2019-05-16T11:07:19.476Z,44.50
2019-05-16T11:10:07.811Z,44.90
2019-05-16T11:12:59.483Z,46.50
2019-05-16T11:15:45.693Z,46.70
2019-05-16T11:18:33.660Z,46.20
2019-05-16T11:21:21.801Z,46.70
2019-05-16T11:24:12.503Z,48.20
2019-05-16T11:26:59.824Z,49.50
2019-05-16T11:29:47.512Z,49.50
2019-05-16T11:32:37.389Z,47.70
2019-05-16T11:35:27.313Z,46.20
2019-05-16T11:41:01.715Z,45.80
2019-05-16T11:43:49.564Z,46.40
2019-05-16T11:46:37.656Z,46.20
2019-05-16T11:49:27.569Z,47.00
2019-05-16T11:52:17.839Z,45.80
2019-05-16T11:55:07.566Z,46.70
2019-05-16T11:57:56.864Z,46.40
2019-05-16T12:00:47.897Z,46.80
2019-05-16T12:03:37.279Z,46.40
2019-05-16T12:06:26.627Z,46.40
2019-05-16T12:09:14.417Z,45.50
2019-05-16T12:12:04.284Z,45.00
2019-05-16T12:14:54.992Z,45.60
2019-05-16T12:17:41.796Z,44.40
2019-05-16T12:20:29.772Z,44.50
2019-05-16T12:23:17.616Z,45.40
2019-05-16T12:26:07.907Z,43.50
2019-05-16T12:28:57.287Z,44.50
2019-05-16T12:31:55.193Z,43.80
2019-05-16T12:34:36.738Z,43.50
2019-05-16T12:37:24.437Z,43.80
2019-05-16T12:40:12.724Z,45.40
2019-05-16T12:43:00.515Z,45.80
2019-05-16T12:45:48.397Z,45.60
2019-05-16T12:48:37.302Z,44.50
2019-05-16T12:51:26.468Z,45.80
2019-05-16T12:54:17.966Z,46.80
2019-05-16T12:57:04.413Z,46.40
2019-05-16T12:59:52.626Z,46.50
2019-05-16T13:02:40.736Z,46.50
2019-05-16T13:05:28.551Z,47.00
2019-05-16T13:08:17.397Z,46.70
2019-05-16T13:11:07.117Z,47.20
2019-05-16T13:14:03.530Z,48.30
2019-05-16T13:16:47.078Z,46.10
2019-05-16T13:19:34.943Z,45.20
2019-05-16T13:22:23.881Z,44.40
2019-05-16T13:25:11.944Z,44.30
2019-05-16T13:27:59.915Z,45.10
2019-05-16T13:30:48.089Z,43.00
2019-05-16T13:33:36.755Z,40.80
2019-05-16T13:36:27.086Z,41.30
2019-05-16T13:39:16.813Z,41.00
2019-05-16T13:42:04.192Z,43.20
2019-05-16T13:44:52.073Z,42.80
2019-05-16T13:47:39.709Z,41.70
2019-05-16T13:50:27.816Z,41.00
2019-05-16T13:53:16.380Z,41.30
2019-05-16T13:56:07.112Z,42.00
2019-05-16T13:58:53.943Z,41.40
2019-05-16T14:01:41.573Z,40.10
2019-05-16T14:04:29.244Z,40.40
2019-05-16T14:07:17.314Z,40.50
2019-05-16T14:10:09.442Z,41.40
2019-05-16T14:12:57.724Z,39.70
2019-05-16T14:15:47.306Z,40.60
2019-05-16T14:18:37.615Z,39.50
2019-05-16T14:21:25.058Z,42.00
2019-05-16T14:24:12.996Z,39.80
2019-05-16T14:27:00.647Z,40.80
2019-05-16T14:29:48.325Z,42.50
2019-05-16T14:32:40.975Z,43.30
2019-05-16T14:35:26.791Z,40.50
2019-05-16T14:41:04.178Z,39.80
2019-05-16T14:43:51.990Z,39.70
2019-05-16T14:46:39.789Z,40.50
2019-05-16T14:49:28.737Z,39.90
2019-05-16T14:52:17.355Z,41.30
2019-05-16T14:55:07.376Z,42.10
2019-05-16T14:57:56.699Z,44.90
2019-05-16T15:00:48.421Z,42.20
2019-05-16T15:03:36.411Z,42.60
2019-05-16T15:06:23.958Z,42.40
2019-05-16T15:09:12.079Z,42.60
2019-05-16T15:12:02.921Z,42.70
2019-05-16T15:14:50.466Z,42.60
2019-05-16T15:17:47.361Z,43.10
2019-05-16T15:20:35.123Z,42.90
2019-05-16T15:23:22.974Z,42.90
2019-05-16T15:26:10.839Z,43.50
2019-05-16T15:28:59.218Z,42.60
2019-05-16T15:31:46.984Z,42.70
2019-05-16T15:34:37.804Z,42.90
2019-05-16T15:37:27.280Z,42.20
2019-05-16T15:40:14.652Z,42.70
2019-05-16T15:43:02.613Z,43.30
2019-05-16T15:45:53.247Z,43.30
2019-05-16T15:48:40.084Z,43.20
2019-05-16T15:51:28.156Z,42.50
2019-05-16T15:54:19.503Z,42.90
2019-05-16T15:57:07.596Z,44.20
2019-05-16T15:59:57.534Z,42.10
2019-05-16T16:02:44.857Z,43.60
2019-05-16T16:05:32.604Z,43.10
2019-05-16T16:08:20.519Z,43.80
2019-05-16T16:11:08.460Z,44.10
2019-05-16T16:13:57.644Z,44.90
2019-05-16T16:16:46.479Z,44.00
2019-05-16T16:19:34.469Z,43.10
2019-05-16T16:22:22.529Z,43.60
2019-05-16T16:25:10.286Z,44.80
2019-05-16T16:27:58.102Z,44.20
2019-05-16T16:30:48.030Z,44.80
2019-05-16T16:33:37.483Z,46.10
2019-05-16T16:36:24.804Z,47.70
2019-05-16T16:39:12.828Z,48.50
2019-05-16T16:42:00.770Z,46.80
2019-05-16T16:44:48.459Z,47.10
2019-05-16T16:47:37.685Z,46.30
2019-05-16T16:50:26.592Z,47.90
2019-05-16T16:53:14.752Z,48.60
2019-05-16T16:56:02.728Z,48.60
2019-05-16T16:58:50.766Z,48.10
2019-05-16T17:01:38.373Z,50.90
2019-05-16T17:04:26.646Z,50.50
2019-05-16T17:07:16.741Z,50.80
2019-05-16T17:10:09.016Z,52.40
2019-05-16T17:12:57.605Z,52.80
2019-05-16T17:15:47.641Z,49.90
2019-05-16T17:18:36.924Z,54.50
2019-05-16T17:21:25.065Z,53.30
2019-05-16T17:24:13.059Z,54.30
2019-05-16T17:27:00.945Z,54.80
2019-05-16T17:29:48.843Z,54.60
2019-05-16T17:32:36.714Z,56.20
2019-05-16T17:35:26.889Z,55.80
2019-05-16T17:38:13.805Z,55.20
2019-05-16T17:41:01.812Z,54.40
2019-05-16T17:43:49.428Z,54.70
2019-05-16T17:46:40.726Z,54.20
2019-05-16T17:49:26.682Z,51.70
2019-05-16T17:52:16.548Z,52.50
2019-05-16T17:55:07.234Z,51.10
2019-05-16T17:57:57.030Z,52.50
2019-05-16T18:00:47.164Z,52.40
2019-05-16T18:03:37.089Z,52.30
2019-05-16T18:06:24.490Z,53.10
2019-05-16T18:09:12.292Z,53.40
2019-05-16T18:12:00.002Z,53.30
2019-05-16T18:14:50.301Z,57.20
2019-05-16T18:17:37.853Z,56.50
2019-05-16T18:20:26.596Z,54.10
2019-05-16T18:23:16.494Z,55.80
2019-05-16T18:26:04.756Z,54.60
2019-05-16T18:28:52.340Z,54.30
2019-05-16T18:31:40.300Z,57.10
2019-05-16T18:34:28.309Z,56.10
2019-05-16T18:37:17.310Z,56.40
2019-05-16T18:40:08.721Z,57.20
2019-05-16T18:42:57.032Z,59.00
2019-05-16T18:45:47.225Z,58.20
2019-05-16T18:48:36.631Z,56.10
2019-05-16T18:51:26.350Z,56.40
2019-05-16T18:54:17.048Z,55.00
2019-05-16T18:57:06.830Z,56.10
2019-05-16T18:59:53.976Z,55.80
2019-05-16T19:02:42.047Z,56.20
2019-05-16T19:05:29.556Z,56.40
2019-05-16T19:08:17.483Z,56.90
2019-05-16T19:11:07.438Z,57.30
2019-05-16T19:13:56.354Z,58.00
2019-05-16T19:16:44.615Z,58.90
2019-05-16T19:19:32.588Z,58.70
2019-05-16T19:22:20.844Z,58.70
2019-05-16T19:25:08.934Z,59.00
2019-05-16T19:27:57.063Z,59.40
2019-05-16T19:30:46.560Z,60.30
2019-05-16T19:33:34.660Z,61.30
2019-05-16T19:36:22.520Z,62.10
2019-05-16T19:39:10.387Z,62.70
2019-05-16T19:41:58.412Z,62.60
2019-05-16T19:44:46.540Z,63.50
2019-05-16T19:47:38.470Z,64.30
2019-05-16T19:50:26.651Z,64.60
2019-05-16T19:53:16.515Z,65.30
2019-05-16T19:56:03.713Z,65.70
2019-05-16T19:58:51.497Z,66.60
2019-05-16T20:01:39.444Z,67.40
2019-05-16T20:04:27.534Z,68.10
2019-05-16T20:11:04.544Z,69.10
2019-05-16T20:13:52.167Z,69.30
2019-05-16T20:16:40.120Z,69.80
2019-05-16T20:19:28.066Z,70.70
2019-05-16T20:22:16.641Z,70.60
2019-05-16T20:25:06.839Z,71.60
2019-05-16T20:27:54.778Z,71.50
2019-05-16T20:30:42.785Z,72.70
2019-05-16T20:33:30.617Z,73.10
2019-05-16T20:36:18.685Z,73.80
2019-05-16T20:39:08.583Z,74.10
2019-05-16T20:41:59.634Z,74.60
2019-05-16T20:44:46.324Z,75.10
2019-05-16T20:47:35.346Z,75.70
2019-05-16T20:50:23.345Z,76.40
2019-05-16T20:53:11.128Z,76.90
2019-05-16T20:55:58.726Z,77.70
2019-05-16T20:58:48.636Z,78.40
2019-05-16T21:01:36.031Z,79.00
2019-05-16T21:04:24.081Z,79.50
2019-05-16T21:07:11.981Z,79.80
2019-05-16T21:09:59.689Z,80.10
2019-05-16T21:12:47.641Z,80.30
2019-05-16T21:15:37.259Z,81.30
2019-05-16T21:18:25.097Z,81.20
2019-05-16T21:21:12.892Z,81.80
2019-05-16T21:24:00.773Z,82.70
2019-05-16T21:26:48.517Z,83.20
2019-05-16T21:29:36.907Z,83.20
2019-05-16T21:32:26.957Z,83.30
2019-05-16T21:35:14.661Z,82.70
2019-05-16T21:38:02.520Z,83.00
2019-05-16T21:40:50.058Z,82.70
2019-05-16T21:43:37.923Z,82.90
2019-05-16T21:46:27.125Z,82.90
2019-05-16T21:49:16.507Z,83.10
2019-05-16T21:52:05.577Z,83.40
2019-05-16T21:54:53.454Z,83.30
2019-05-16T21:57:41.398Z,83.40
2019-05-16T22:00:37.497Z,83.60
2019-05-16T22:03:26.913Z,83.60
2019-05-16T22:06:16.586Z,84.60
2019-05-16T22:09:06.738Z,84.90
2019-05-16T22:11:57.108Z,85.30
2019-05-16T22:14:51.745Z,85.50
2019-05-16T22:17:39.585Z,85.90
2019-05-16T22:20:27.693Z,86.40
2019-05-16T22:23:17.198Z,86.10
2019-05-16T22:26:07.345Z,86.90
2019-05-16T22:28:57.293Z,87.20
2019-05-16T22:31:43.985Z,88.70
2019-05-16T22:34:32.037Z,88.30
2019-05-16T22:37:19.677Z,88.90
2019-05-16T22:40:07.879Z,88.80
2019-05-16T22:42:57.541Z,88.40
2019-05-16T22:45:46.811Z,89.20
2019-05-16T22:48:37.111Z,88.90
2019-05-16T22:51:27.134Z,89.50
2019-05-16T22:54:17.052Z,89.60
2019-05-16T22:57:06.542Z,90.20
2019-05-16T22:59:53.905Z,90.40
2019-05-16T23:02:41.497Z,90.50
2019-05-16T23:05:29.580Z,90.40
2019-05-16T23:08:17.538Z,90.30
2019-05-16T23:11:07.314Z,90.50
2019-05-16T23:13:56.818Z,90.50
2019-05-16T23:16:46.440Z,90.60
2019-05-16T23:19:36.662Z,90.90
2019-05-16T23:22:27.244Z,90.90
2019-05-16T23:25:16.930Z,90.80
2019-05-16T23:28:07.358Z,90.60
2019-05-16T23:30:57.555Z,91.10
2019-05-16T23:33:46.861Z,91.20
2019-05-16T23:36:33.961Z,91.20
2019-05-16T23:39:22.057Z,91.10
2019-05-16T23:42:09.745Z,91.00
2019-05-16T23:44:57.745Z,91.10
2019-05-16T23:47:47.191Z,91.10
2019-05-16T23:50:36.678Z,91.20
2019-05-16T23:53:24.781Z,91.20
2019-05-16T23:56:12.361Z,91.20
